sensor_id;sensor_type;location;lat;lon;timestamp;P1;durP1;ratioP1;P2;durP2;ratioP2
8098;SDS011;4092;47.876;9.372;2022-11-14T00:00:48;34.93;;;8.60;;
8098;SDS011;4092;47.876;9.372;2022-11-14T00:03:15;58.37;;;9.27;;
8098;SDS011;4092;47.876;9.372;2022-11-14T00:05:43;51.73;;;12.60;;
8098;SDS011;4092;47.876;9.372;2022-11-14T00:08:14;90.70;;;13.87;;
8098;SDS011;4092;47.876;9.372;2022-11-14T00:10:43;78.07;;;11.67;;
8098;SDS011;4092;47.876;9.372;2022-11-14T00:13:13;56.97;;;12.20;;
8098;SDS011;4092;47.876;9.372;2022-11-14T00:15:40;58.17;;;12.30;;
8098;SDS011;4092;47.876;9.372;2022-11-14T00:18:08;55.30;;;10.77;;
8098;SDS011;4092;47.876;9.372;2022-11-14T00:20:35;66.33;;;8.60;;
8098;SDS011;4092;47.876;9.372;2022-11-14T00:23:02;52.63;;;9.87;;
8098;SDS011;4092;47.876;9.372;2022-11-14T00:25:30;34.43;;;9.37;;
8098;SDS011;4092;47.876;9.372;2022-11-14T00:27:57;38.50;;;8.63;;
8098;SDS011;4092;47.876;9.372;2022-11-14T00:30:26;39.07;;;9.00;;
8098;SDS011;4092;47.876;9.372;2022-11-14T00:32:53;58.07;;;9.07;;
8098;SDS011;4092;47.876;9.372;2022-11-14T00:35:20;67.57;;;9.83;;
8098;SDS011;4092;47.876;9.372;2022-11-14T00:37:47;69.83;;;9.67;;
8098;SDS011;4092;47.876;9.372;2022-11-14T00:40:15;31.70;;;7.50;;
8098;SDS011;4092;47.876;9.372;2022-11-14T00:42:42;76.60;;;12.70;;
8098;SDS011;4092;47.876;9.372;2022-11-14T00:45:10;67.53;;;13.20;;
8098;SDS011;4092;47.876;9.372;2022-11-14T00:47:38;20.43;;;8.93;;
8098;SDS011;4092;47.876;9.372;2022-11-14T00:50:06;67.20;;;11.80;;
8098;SDS011;4092;47.876;9.372;2022-11-14T00:52:33;34.13;;;7.73;;
8098;SDS011;4092;47.876;9.372;2022-11-14T00:55:00;63.23;;;12.30;;
8098;SDS011;4092;47.876;9.372;2022-11-14T00:57:27;57.20;;;12.30;;
8098;SDS011;4092;47.876;9.372;2022-11-14T00:59:54;53.17;;;9.53;;
8098;SDS011;4092;47.876;9.372;2022-11-14T01:02:21;37.67;;;9.13;;
8098;SDS011;4092;47.876;9.372;2022-11-14T01:04:50;59.97;;;11.87;;
8098;SDS011;4092;47.876;9.372;2022-11-14T01:07:17;64.37;;;12.27;;
8098;SDS011;4092;47.876;9.372;2022-11-14T01:09:44;41.17;;;9.40;;
8098;SDS011;4092;47.876;9.372;2022-11-14T01:12:11;28.30;;;9.93;;
8098;SDS011;4092;47.876;9.372;2022-11-14T01:14:38;39.83;;;7.77;;
8098;SDS011;4092;47.876;9.372;2022-11-14T01:17:05;19.27;;;6.90;;
8098;SDS011;4092;47.876;9.372;2022-11-14T01:19:32;40.47;;;10.37;;
8098;SDS011;4092;47.876;9.372;2022-11-14T01:22:01;37.60;;;9.57;;
8098;SDS011;4092;47.876;9.372;2022-11-14T01:24:28;14.80;;;7.77;;
8098;SDS011;4092;47.876;9.372;2022-11-14T01:26:57;16.43;;;6.93;;
8098;SDS011;4092;47.876;9.372;2022-11-14T01:29:24;43.07;;;9.47;;
8098;SDS011;4092;47.876;9.372;2022-11-14T01:31:51;44.53;;;11.27;;
8098;SDS011;4092;47.876;9.372;2022-11-14T01:34:18;27.67;;;7.63;;
8098;SDS011;4092;47.876;9.372;2022-11-14T01:36:45;25.40;;;6.70;;
8098;SDS011;4092;47.876;9.372;2022-11-14T01:39:13;27.43;;;7.87;;
8098;SDS011;4092;47.876;9.372;2022-11-14T01:41:40;20.53;;;6.97;;
8098;SDS011;4092;47.876;9.372;2022-11-14T01:44:10;36.87;;;8.53;;
8098;SDS011;4092;47.876;9.372;2022-11-14T01:46:39;21.60;;;8.13;;
8098;SDS011;4092;47.876;9.372;2022-11-14T01:49:13;43.63;;;10.00;;
8098;SDS011;4092;47.876;9.372;2022-11-14T01:51:43;30.40;;;7.17;;
8098;SDS011;4092;47.876;9.372;2022-11-14T01:54:21;25.33;;;8.70;;
8098;SDS011;4092;47.876;9.372;2022-11-14T01:56:52;20.40;;;7.00;;
8098;SDS011;4092;47.876;9.372;2022-11-14T01:59:22;20.97;;;7.80;;
8098;SDS011;4092;47.876;9.372;2022-11-14T02:01:53;32.23;;;8.00;;
8098;SDS011;4092;47.876;9.372;2022-11-14T02:04:23;36.00;;;9.20;;
8098;SDS011;4092;47.876;9.372;2022-11-14T02:06:54;31.13;;;8.50;;
8098;SDS011;4092;47.876;9.372;2022-11-14T02:09:24;25.93;;;8.63;;
8098;SDS011;4092;47.876;9.372;2022-11-14T02:11:54;20.63;;;10.20;;
8098;SDS011;4092;47.876;9.372;2022-11-14T02:14:23;25.30;;;9.33;;
8098;SDS011;4092;47.876;9.372;2022-11-14T02:16:51;31.57;;;8.87;;
8098;SDS011;4092;47.876;9.372;2022-11-14T02:19:18;26.37;;;8.80;;
8098;SDS011;4092;47.876;9.372;2022-11-14T02:21:47;40.33;;;10.20;;
8098;SDS011;4092;47.876;9.372;2022-11-14T02:24:14;39.60;;;10.70;;
8098;SDS011;4092;47.876;9.372;2022-11-14T02:26:41;34.40;;;9.23;;
8098;SDS011;4092;47.876;9.372;2022-11-14T02:29:09;47.90;;;10.70;;
8098;SDS011;4092;47.876;9.372;2022-11-14T02:31:36;35.53;;;11.37;;
8098;SDS011;4092;47.876;9.372;2022-11-14T02:34:07;28.43;;;8.20;;
8098;SDS011;4092;47.876;9.372;2022-11-14T02:36:34;46.70;;;10.20;;
8098;SDS011;4092;47.876;9.372;2022-11-14T02:39:02;43.37;;;10.07;;
8098;SDS011;4092;47.876;9.372;2022-11-14T02:41:29;21.23;;;9.57;;
8098;SDS011;4092;47.876;9.372;2022-11-14T02:43:56;20.03;;;9.30;;
8098;SDS011;4092;47.876;9.372;2022-11-14T02:46:23;29.63;;;8.80;;
8098;SDS011;4092;47.876;9.372;2022-11-14T02:48:50;18.70;;;8.93;;
8098;SDS011;4092;47.876;9.372;2022-11-14T02:51:17;34.63;;;9.10;;
8098;SDS011;4092;47.876;9.372;2022-11-14T02:53:44;15.90;;;8.80;;
8098;SDS011;4092;47.876;9.372;2022-11-14T02:56:12;16.30;;;8.50;;
8098;SDS011;4092;47.876;9.372;2022-11-14T02:58:39;17.20;;;7.20;;
8098;SDS011;4092;47.876;9.372;2022-11-14T03:01:06;17.33;;;6.20;;
8098;SDS011;4092;47.876;9.372;2022-11-14T03:03:33;15.43;;;6.53;;
8098;SDS011;4092;47.876;9.372;2022-11-14T03:06:01;17.73;;;8.17;;
8098;SDS011;4092;47.876;9.372;2022-11-14T03:08:29;13.50;;;6.40;;
8098;SDS011;4092;47.876;9.372;2022-11-14T03:11:02;15.70;;;8.37;;
8098;SDS011;4092;47.876;9.372;2022-11-14T03:13:31;19.27;;;8.20;;
8098;SDS011;4092;47.876;9.372;2022-11-14T03:16:03;19.17;;;7.37;;
8098;SDS011;4092;47.876;9.372;2022-11-14T03:18:32;20.67;;;9.60;;
8098;SDS011;4092;47.876;9.372;2022-11-14T03:21:03;19.67;;;7.53;;
8098;SDS011;4092;47.876;9.372;2022-11-14T03:23:31;13.63;;;7.43;;
8098;SDS011;4092;47.876;9.372;2022-11-14T03:25:59;15.27;;;7.00;;
8098;SDS011;4092;47.876;9.372;2022-11-14T03:28:27;13.93;;;6.10;;
8098;SDS011;4092;47.876;9.372;2022-11-14T03:30:55;14.40;;;5.33;;
8098;SDS011;4092;47.876;9.372;2022-11-14T03:33:22;20.53;;;6.37;;
8098;SDS011;4092;47.876;9.372;2022-11-14T03:35:49;16.37;;;7.10;;
8098;SDS011;4092;47.876;9.372;2022-11-14T03:38:17;20.63;;;9.30;;
8098;SDS011;4092;47.876;9.372;2022-11-14T03:40:47;13.00;;;6.80;;
8098;SDS011;4092;47.876;9.372;2022-11-14T03:43:14;16.50;;;8.20;;
8098;SDS011;4092;47.876;9.372;2022-11-14T03:45:41;19.27;;;7.43;;
8098;SDS011;4092;47.876;9.372;2022-11-14T03:48:09;18.37;;;7.30;;
8098;SDS011;4092;47.876;9.372;2022-11-14T03:50:37;14.50;;;6.53;;
8098;SDS011;4092;47.876;9.372;2022-11-14T03:53:04;14.27;;;7.00;;
8098;SDS011;4092;47.876;9.372;2022-11-14T03:55:31;16.93;;;11.10;;
8098;SDS011;4092;47.876;9.372;2022-11-14T03:57:58;12.80;;;7.83;;
8098;SDS011;4092;47.876;9.372;2022-11-14T04:00:25;11.80;;;6.50;;
8098;SDS011;4092;47.876;9.372;2022-11-14T04:02:53;14.60;;;6.37;;
8098;SDS011;4092;47.876;9.372;2022-11-14T04:05:22;10.47;;;5.70;;
8098;SDS011;4092;47.876;9.372;2022-11-14T04:07:49;20.30;;;8.03;;
8098;SDS011;4092;47.876;9.372;2022-11-14T04:10:16;17.13;;;7.33;;
8098;SDS011;4092;47.876;9.372;2022-11-14T04:12:46;8.83;;;6.03;;
8098;SDS011;4092;47.876;9.372;2022-11-14T04:15:14;12.60;;;7.00;;
8098;SDS011;4092;47.876;9.372;2022-11-14T04:17:41;22.33;;;8.40;;
8098;SDS011;4092;47.876;9.372;2022-11-14T04:20:09;16.20;;;7.40;;
8098;SDS011;4092;47.876;9.372;2022-11-14T04:22:38;19.27;;;6.53;;
8098;SDS011;4092;47.876;9.372;2022-11-14T04:25:06;13.53;;;6.87;;
8098;SDS011;4092;47.876;9.372;2022-11-14T04:27:34;12.93;;;9.07;;
8098;SDS011;4092;47.876;9.372;2022-11-14T04:30:01;14.43;;;7.07;;
8098;SDS011;4092;47.876;9.372;2022-11-14T04:32:29;18.13;;;7.57;;
8098;SDS011;4092;47.876;9.372;2022-11-14T04:34:56;12.07;;;6.67;;
8098;SDS011;4092;47.876;9.372;2022-11-14T04:37:23;11.97;;;7.80;;
8098;SDS011;4092;47.876;9.372;2022-11-14T04:39:51;13.60;;;6.20;;
8098;SDS011;4092;47.876;9.372;2022-11-14T04:42:22;18.17;;;5.90;;
8098;SDS011;4092;47.876;9.372;2022-11-14T04:44:49;14.80;;;7.03;;
8098;SDS011;4092;47.876;9.372;2022-11-14T04:47:16;16.60;;;6.87;;
8098;SDS011;4092;47.876;9.372;2022-11-14T04:49:43;15.23;;;7.20;;
8098;SDS011;4092;47.876;9.372;2022-11-14T04:52:10;11.07;;;6.00;;
8098;SDS011;4092;47.876;9.372;2022-11-14T04:54:37;18.53;;;7.77;;
8098;SDS011;4092;47.876;9.372;2022-11-14T04:57:06;13.30;;;5.63;;
8098;SDS011;4092;47.876;9.372;2022-11-14T04:59:33;12.70;;;7.03;;
8098;SDS011;4092;47.876;9.372;2022-11-14T05:02:00;14.50;;;7.20;;
8098;SDS011;4092;47.876;9.372;2022-11-14T05:04:27;13.97;;;6.60;;
8098;SDS011;4092;47.876;9.372;2022-11-14T05:06:55;12.83;;;7.40;;
8098;SDS011;4092;47.876;9.372;2022-11-14T05:09:22;13.10;;;6.97;;
8098;SDS011;4092;47.876;9.372;2022-11-14T05:11:49;16.40;;;7.40;;
8098;SDS011;4092;47.876;9.372;2022-11-14T05:14:17;13.77;;;6.80;;
8098;SDS011;4092;47.876;9.372;2022-11-14T05:16:44;13.20;;;6.70;;
8098;SDS011;4092;47.876;9.372;2022-11-14T05:19:11;8.97;;;4.87;;
8098;SDS011;4092;47.876;9.372;2022-11-14T05:21:38;10.57;;;5.40;;
8098;SDS011;4092;47.876;9.372;2022-11-14T05:24:05;8.50;;;4.77;;
8098;SDS011;4092;47.876;9.372;2022-11-14T05:26:32;7.30;;;6.00;;
8098;SDS011;4092;47.876;9.372;2022-11-14T05:28:59;11.40;;;7.27;;
8098;SDS011;4092;47.876;9.372;2022-11-14T05:31:28;19.47;;;5.23;;
8098;SDS011;4092;47.876;9.372;2022-11-14T05:33:55;13.17;;;6.27;;
8098;SDS011;4092;47.876;9.372;2022-11-14T05:36:22;17.27;;;6.97;;
8098;SDS011;4092;47.876;9.372;2022-11-14T05:38:49;15.90;;;6.43;;
8098;SDS011;4092;47.876;9.372;2022-11-14T05:41:16;15.07;;;7.10;;
8098;SDS011;4092;47.876;9.372;2022-11-14T05:43:44;9.23;;;6.07;;
8098;SDS011;4092;47.876;9.372;2022-11-14T05:46:13;10.33;;;6.77;;
8098;SDS011;4092;47.876;9.372;2022-11-14T05:48:42;8.10;;;5.20;;
8098;SDS011;4092;47.876;9.372;2022-11-14T05:51:09;10.20;;;5.60;;
8098;SDS011;4092;47.876;9.372;2022-11-14T05:53:38;8.30;;;6.30;;
8098;SDS011;4092;47.876;9.372;2022-11-14T05:56:06;12.50;;;5.03;;
8098;SDS011;4092;47.876;9.372;2022-11-14T05:58:36;8.90;;;4.83;;
8098;SDS011;4092;47.876;9.372;2022-11-14T06:01:04;14.27;;;7.47;;
8098;SDS011;4092;47.876;9.372;2022-11-14T06:03:33;13.37;;;6.67;;
8098;SDS011;4092;47.876;9.372;2022-11-14T06:06:03;9.67;;;5.93;;
8098;SDS011;4092;47.876;9.372;2022-11-14T06:08:32;10.73;;;5.40;;
8098;SDS011;4092;47.876;9.372;2022-11-14T06:11:00;15.97;;;7.30;;
8098;SDS011;4092;47.876;9.372;2022-11-14T06:13:29;10.67;;;5.10;;
8098;SDS011;4092;47.876;9.372;2022-11-14T06:15:57;11.70;;;5.50;;
8098;SDS011;4092;47.876;9.372;2022-11-14T06:18:25;10.57;;;5.07;;
8098;SDS011;4092;47.876;9.372;2022-11-14T06:20:53;16.00;;;4.77;;
8098;SDS011;4092;47.876;9.372;2022-11-14T06:23:25;9.07;;;5.47;;
8098;SDS011;4092;47.876;9.372;2022-11-14T06:25:56;12.00;;;6.83;;
8098;SDS011;4092;47.876;9.372;2022-11-14T06:28:24;10.70;;;4.90;;
8098;SDS011;4092;47.876;9.372;2022-11-14T06:30:55;7.73;;;4.73;;
8098;SDS011;4092;47.876;9.372;2022-11-14T06:33:23;10.10;;;5.40;;
8098;SDS011;4092;47.876;9.372;2022-11-14T06:35:55;8.67;;;4.40;;
8098;SDS011;4092;47.876;9.372;2022-11-14T06:38:25;9.30;;;4.00;;
8098;SDS011;4092;47.876;9.372;2022-11-14T06:40:52;10.20;;;6.87;;
8098;SDS011;4092;47.876;9.372;2022-11-14T06:43:27;10.50;;;4.33;;
8098;SDS011;4092;47.876;9.372;2022-11-14T06:45:54;7.63;;;5.13;;
8098;SDS011;4092;47.876;9.372;2022-11-14T06:48:21;11.63;;;5.50;;
8098;SDS011;4092;47.876;9.372;2022-11-14T06:50:50;11.27;;;7.03;;
8098;SDS011;4092;47.876;9.372;2022-11-14T06:53:17;7.43;;;5.17;;
8098;SDS011;4092;47.876;9.372;2022-11-14T06:55:52;9.17;;;5.40;;
8098;SDS011;4092;47.876;9.372;2022-11-14T06:58:20;8.53;;;5.90;;
8098;SDS011;4092;47.876;9.372;2022-11-14T07:00:47;13.27;;;6.70;;
8098;SDS011;4092;47.876;9.372;2022-11-14T07:03:14;14.73;;;5.17;;
8098;SDS011;4092;47.876;9.372;2022-11-14T07:05:41;13.77;;;4.80;;
8098;SDS011;4092;47.876;9.372;2022-11-14T07:08:08;7.90;;;3.70;;
8098;SDS011;4092;47.876;9.372;2022-11-14T07:10:35;9.00;;;4.50;;
8098;SDS011;4092;47.876;9.372;2022-11-14T07:13:03;6.87;;;5.20;;
8098;SDS011;4092;47.876;9.372;2022-11-14T07:15:30;12.50;;;5.60;;
8098;SDS011;4092;47.876;9.372;2022-11-14T07:17:57;10.60;;;5.17;;
8098;SDS011;4092;47.876;9.372;2022-11-14T07:20:24;17.23;;;7.23;;
8098;SDS011;4092;47.876;9.372;2022-11-14T07:22:51;6.03;;;4.53;;
8098;SDS011;4092;47.876;9.372;2022-11-14T07:25:18;12.07;;;5.90;;
8098;SDS011;4092;47.876;9.372;2022-11-14T07:27:46;10.37;;;5.80;;
8098;SDS011;4092;47.876;9.372;2022-11-14T07:30:15;6.90;;;4.03;;
8098;SDS011;4092;47.876;9.372;2022-11-14T07:32:42;6.03;;;3.90;;
8098;SDS011;4092;47.876;9.372;2022-11-14T07:35:09;9.90;;;5.50;;
8098;SDS011;4092;47.876;9.372;2022-11-14T07:37:36;13.60;;;5.63;;
8098;SDS011;4092;47.876;9.372;2022-11-14T07:40:03;7.67;;;4.67;;
8098;SDS011;4092;47.876;9.372;2022-11-14T07:42:31;9.00;;;5.33;;
8098;SDS011;4092;47.876;9.372;2022-11-14T07:44:58;7.47;;;4.70;;
8098;SDS011;4092;47.876;9.372;2022-11-14T07:47:26;9.40;;;5.13;;
8098;SDS011;4092;47.876;9.372;2022-11-14T07:49:53;8.17;;;4.73;;
8098;SDS011;4092;47.876;9.372;2022-11-14T07:52:20;10.07;;;6.63;;
8098;SDS011;4092;47.876;9.372;2022-11-14T07:54:47;12.13;;;5.27;;
8098;SDS011;4092;47.876;9.372;2022-11-14T07:57:14;8.90;;;5.50;;
8098;SDS011;4092;47.876;9.372;2022-11-14T07:59:41;9.70;;;4.63;;
8098;SDS011;4092;47.876;9.372;2022-11-14T08:02:10;10.90;;;6.03;;
8098;SDS011;4092;47.876;9.372;2022-11-14T08:04:40;6.10;;;3.80;;
8098;SDS011;4092;47.876;9.372;2022-11-14T08:07:08;6.57;;;3.90;;
8098;SDS011;4092;47.876;9.372;2022-11-14T08:09:35;10.53;;;4.27;;
8098;SDS011;4092;47.876;9.372;2022-11-14T08:12:02;8.00;;;5.03;;
8098;SDS011;4092;47.876;9.372;2022-11-14T08:14:29;6.70;;;3.63;;
8098;SDS011;4092;47.876;9.372;2022-11-14T08:16:56;6.13;;;3.13;;
8098;SDS011;4092;47.876;9.372;2022-11-14T08:19:23;5.20;;;2.80;;
8098;SDS011;4092;47.876;9.372;2022-11-14T08:21:51;4.73;;;2.77;;
8098;SDS011;4092;47.876;9.372;2022-11-14T08:24:18;9.43;;;4.30;;
8098;SDS011;4092;47.876;9.372;2022-11-14T08:26:45;6.10;;;2.63;;
8098;SDS011;4092;47.876;9.372;2022-11-14T08:29:12;4.43;;;3.33;;
8098;SDS011;4092;47.876;9.372;2022-11-14T08:31:39;2.17;;;1.97;;
8098;SDS011;4092;47.876;9.372;2022-11-14T08:34:06;2.13;;;1.93;;
8098;SDS011;4092;47.876;9.372;2022-11-14T08:36:33;2.40;;;1.67;;
8098;SDS011;4092;47.876;9.372;2022-11-14T08:39:02;3.07;;;2.20;;
8098;SDS011;4092;47.876;9.372;2022-11-14T08:41:29;2.23;;;1.43;;
8098;SDS011;4092;47.876;9.372;2022-11-14T08:43:56;4.37;;;2.27;;
8098;SDS011;4092;47.876;9.372;2022-11-14T08:46:23;5.10;;;2.07;;
8098;SDS011;4092;47.876;9.372;2022-11-14T08:48:50;4.90;;;2.80;;
8098;SDS011;4092;47.876;9.372;2022-11-14T08:51:17;3.33;;;2.33;;
8098;SDS011;4092;47.876;9.372;2022-11-14T08:53:44;3.70;;;2.80;;
8098;SDS011;4092;47.876;9.372;2022-11-14T08:56:12;5.80;;;2.70;;
8098;SDS011;4092;47.876;9.372;2022-11-14T08:58:39;1.83;;;1.20;;
8098;SDS011;4092;47.876;9.372;2022-11-14T09:01:06;1.93;;;1.47;;
8098;SDS011;4092;47.876;9.372;2022-11-14T09:03:33;3.10;;;2.17;;
8098;SDS011;4092;47.876;9.372;2022-11-14T09:06:00;2.07;;;1.83;;
8098;SDS011;4092;47.876;9.372;2022-11-14T09:08:28;1.87;;;1.23;;
8098;SDS011;4092;47.876;9.372;2022-11-14T09:10:58;2.80;;;1.53;;
8098;SDS011;4092;47.876;9.372;2022-11-14T09:13:27;3.20;;;1.70;;
8098;SDS011;4092;47.876;9.372;2022-11-14T09:15:54;4.33;;;2.07;;
8098;SDS011;4092;47.876;9.372;2022-11-14T09:18:21;2.80;;;1.20;;
8098;SDS011;4092;47.876;9.372;2022-11-14T09:20:48;1.97;;;1.70;;
8098;SDS011;4092;47.876;9.372;2022-11-14T09:23:15;2.60;;;1.63;;
8098;SDS011;4092;47.876;9.372;2022-11-14T09:25:42;1.40;;;1.13;;
8098;SDS011;4092;47.876;9.372;2022-11-14T09:28:09;2.17;;;1.63;;
8098;SDS011;4092;47.876;9.372;2022-11-14T09:30:37;3.57;;;1.90;;
8098;SDS011;4092;47.876;9.372;2022-11-14T09:33:05;6.00;;;1.23;;
8098;SDS011;4092;47.876;9.372;2022-11-14T09:35:32;2.07;;;1.23;;
8098;SDS011;4092;47.876;9.372;2022-11-14T09:38:00;2.57;;;1.67;;
8098;SDS011;4092;47.876;9.372;2022-11-14T09:40:28;1.40;;;1.23;;
8098;SDS011;4092;47.876;9.372;2022-11-14T09:43:10;3.20;;;1.50;;
8098;SDS011;4092;47.876;9.372;2022-11-14T09:45:50;5.83;;;1.70;;
8098;SDS011;4092;47.876;9.372;2022-11-14T09:48:19;3.43;;;1.77;;
8098;SDS011;4092;47.876;9.372;2022-11-14T09:50:50;1.67;;;1.17;;
8098;SDS011;4092;47.876;9.372;2022-11-14T09:53:30;1.90;;;1.50;;
8098;SDS011;4092;47.876;9.372;2022-11-14T09:55:59;1.70;;;1.60;;
8098;SDS011;4092;47.876;9.372;2022-11-14T09:58:26;1.10;;;1.00;;
8098;SDS011;4092;47.876;9.372;2022-11-14T10:00:57;2.10;;;1.17;;
8098;SDS011;4092;47.876;9.372;2022-11-14T10:03:32;2.70;;;1.37;;
8098;SDS011;4092;47.876;9.372;2022-11-14T10:06:12;2.70;;;2.50;;
8098;SDS011;4092;47.876;9.372;2022-11-14T10:08:53;1.30;;;1.20;;
8098;SDS011;4092;47.876;9.372;2022-11-14T10:11:34;1.20;;;1.00;;
8098;SDS011;4092;47.876;9.372;2022-11-14T10:14:07;1.30;;;1.20;;
8098;SDS011;4092;47.876;9.372;2022-11-14T10:17:02;1.47;;;1.17;;
8098;SDS011;4092;47.876;9.372;2022-11-14T10:19:39;1.20;;;1.00;;
8098;SDS011;4092;47.876;9.372;2022-11-14T10:22:15;1.30;;;0.90;;
8098;SDS011;4092;47.876;9.372;2022-11-14T10:24:55;2.00;;;1.40;;
8098;SDS011;4092;47.876;9.372;2022-11-14T10:27:32;1.97;;;1.67;;
8098;SDS011;4092;47.876;9.372;2022-11-14T10:30:10;3.10;;;0.97;;
8098;SDS011;4092;47.876;9.372;2022-11-14T10:32:44;2.20;;;1.83;;
8098;SDS011;4092;47.876;9.372;2022-11-14T10:35:27;1.80;;;1.03;;
8098;SDS011;4092;47.876;9.372;2022-11-14T10:37:57;1.90;;;1.07;;
8098;SDS011;4092;47.876;9.372;2022-11-14T10:40:30;1.70;;;1.17;;
8098;SDS011;4092;47.876;9.372;2022-11-14T10:43:04;2.07;;;1.33;;
8098;SDS011;4092;47.876;9.372;2022-11-14T10:45:43;2.20;;;1.20;;
8098;SDS011;4092;47.876;9.372;2022-11-14T10:48:18;1.00;;;0.90;;
8098;SDS011;4092;47.876;9.372;2022-11-14T10:50:54;1.73;;;1.27;;
8098;SDS011;4092;47.876;9.372;2022-11-14T10:53:26;1.40;;;1.00;;
8098;SDS011;4092;47.876;9.372;2022-11-14T10:55:57;1.50;;;1.30;;
8098;SDS011;4092;47.876;9.372;2022-11-14T10:58:25;1.00;;;0.90;;
8098;SDS011;4092;47.876;9.372;2022-11-14T11:00:52;1.60;;;1.00;;
8098;SDS011;4092;47.876;9.372;2022-11-14T11:03:20;1.13;;;0.97;;
8098;SDS011;4092;47.876;9.372;2022-11-14T11:06:08;1.40;;;1.00;;
8098;SDS011;4092;47.876;9.372;2022-11-14T11:08:50;1.60;;;1.50;;
8098;SDS011;4092;47.876;9.372;2022-11-14T11:11:36;1.70;;;1.00;;
8098;SDS011;4092;47.876;9.372;2022-11-14T11:14:08;1.20;;;0.80;;
8098;SDS011;4092;47.876;9.372;2022-11-14T11:16:43;1.10;;;1.00;;
8098;SDS011;4092;47.876;9.372;2022-11-14T11:19:17;1.63;;;1.20;;
8098;SDS011;4092;47.876;9.372;2022-11-14T11:21:49;1.80;;;1.27;;
8098;SDS011;4092;47.876;9.372;2022-11-14T11:24:30;1.37;;;1.27;;
8098;SDS011;4092;47.876;9.372;2022-11-14T11:29:46;1.27;;;1.17;;
8098;SDS011;4092;47.876;9.372;2022-11-14T11:32:31;1.73;;;1.00;;
8098;SDS011;4092;47.876;9.372;2022-11-14T11:35:01;2.30;;;1.03;;
8098;SDS011;4092;47.876;9.372;2022-11-14T11:37:35;1.30;;;1.10;;
8098;SDS011;4092;47.876;9.372;2022-11-14T11:40:11;1.80;;;1.70;;
8098;SDS011;4092;47.876;9.372;2022-11-14T11:42:44;1.20;;;0.90;;
8098;SDS011;4092;47.876;9.372;2022-11-14T11:45:23;1.20;;;0.90;;
8098;SDS011;4092;47.876;9.372;2022-11-14T11:47:55;2.20;;;1.57;;
8098;SDS011;4092;47.876;9.372;2022-11-14T11:50:26;1.03;;;0.80;;
8098;SDS011;4092;47.876;9.372;2022-11-14T11:52:59;2.80;;;0.80;;
8098;SDS011;4092;47.876;9.372;2022-11-14T11:55:33;1.07;;;0.97;;
8098;SDS011;4092;47.876;9.372;2022-11-14T11:58:04;1.70;;;0.90;;
8098;SDS011;4092;47.876;9.372;2022-11-14T12:00:36;2.83;;;1.00;;
8098;SDS011;4092;47.876;9.372;2022-11-14T12:03:04;1.17;;;0.90;;
8098;SDS011;4092;47.876;9.372;2022-11-14T12:05:41;1.00;;;0.90;;
8098;SDS011;4092;47.876;9.372;2022-11-14T12:08:16;1.30;;;0.90;;
8098;SDS011;4092;47.876;9.372;2022-11-14T12:10:49;1.30;;;1.00;;
8098;SDS011;4092;47.876;9.372;2022-11-14T12:19:26;1.27;;;1.17;;
8098;SDS011;4092;47.876;9.372;2022-11-14T12:22:09;1.40;;;0.90;;
8098;SDS011;4092;47.876;9.372;2022-11-14T12:24:51;1.27;;;0.90;;
8098;SDS011;4092;47.876;9.372;2022-11-14T12:27:41;1.47;;;0.93;;
8098;SDS011;4092;47.876;9.372;2022-11-14T12:30:20;1.27;;;0.93;;
8098;SDS011;4092;47.876;9.372;2022-11-14T12:32:49;1.77;;;1.53;;
8098;SDS011;4092;47.876;9.372;2022-11-14T12:35:19;2.07;;;1.67;;
8098;SDS011;4092;47.876;9.372;2022-11-14T12:37:51;2.33;;;1.83;;
8098;SDS011;4092;47.876;9.372;2022-11-14T12:40:22;2.87;;;1.70;;
8098;SDS011;4092;47.876;9.372;2022-11-14T12:42:52;1.67;;;1.37;;
8098;SDS011;4092;47.876;9.372;2022-11-14T12:48:22;1.13;;;1.03;;
8098;SDS011;4092;47.876;9.372;2022-11-14T12:50:55;1.13;;;1.00;;
8098;SDS011;4092;47.876;9.372;2022-11-14T12:53:40;1.83;;;1.20;;
8098;SDS011;4092;47.876;9.372;2022-11-14T12:56:20;1.30;;;1.00;;
8098;SDS011;4092;47.876;9.372;2022-11-14T13:08:08;1.03;;;0.90;;
8098;SDS011;4092;47.876;9.372;2022-11-14T13:10:47;1.00;;;0.90;;
8098;SDS011;4092;47.876;9.372;2022-11-14T13:13:14;1.53;;;0.90;;
8098;SDS011;4092;47.876;9.372;2022-11-14T13:16:21;1.13;;;0.80;;
8098;SDS011;4092;47.876;9.372;2022-11-14T13:19:11;0.97;;;0.70;;
8098;SDS011;4092;47.876;9.372;2022-11-14T13:25:18;1.13;;;0.90;;
8098;SDS011;4092;47.876;9.372;2022-11-14T13:27:48;1.73;;;1.30;;
8098;SDS011;4092;47.876;9.372;2022-11-14T13:30:15;1.20;;;0.90;;
8098;SDS011;4092;47.876;9.372;2022-11-14T13:32:51;1.83;;;1.10;;
8098;SDS011;4092;47.876;9.372;2022-11-14T13:35:22;1.17;;;0.93;;
8098;SDS011;4092;47.876;9.372;2022-11-14T13:38:08;1.40;;;0.93;;
8098;SDS011;4092;47.876;9.372;2022-11-14T13:40:58;1.37;;;1.27;;
8098;SDS011;4092;47.876;9.372;2022-11-14T13:43:38;1.40;;;0.90;;
8098;SDS011;4092;47.876;9.372;2022-11-14T13:46:20;3.63;;;1.73;;
8098;SDS011;4092;47.876;9.372;2022-11-14T13:49:01;2.20;;;1.27;;
8098;SDS011;4092;47.876;9.372;2022-11-14T13:51:45;1.40;;;1.23;;
8098;SDS011;4092;47.876;9.372;2022-11-14T13:54:13;2.33;;;1.17;;
8098;SDS011;4092;47.876;9.372;2022-11-14T13:56:41;1.63;;;1.00;;
8098;SDS011;4092;47.876;9.372;2022-11-14T13:59:36;1.63;;;1.00;;
8098;SDS011;4092;47.876;9.372;2022-11-14T14:02:19;1.20;;;0.90;;
8098;SDS011;4092;47.876;9.372;2022-11-14T14:05:15;1.67;;;1.57;;
8098;SDS011;4092;47.876;9.372;2022-11-14T14:08:04;1.57;;;1.10;;
8098;SDS011;4092;47.876;9.372;2022-11-14T14:10:40;1.10;;;0.90;;
8098;SDS011;4092;47.876;9.372;2022-11-14T14:13:21;1.63;;;0.93;;
8098;SDS011;4092;47.876;9.372;2022-11-14T14:16:02;1.50;;;1.20;;
8098;SDS011;4092;47.876;9.372;2022-11-14T14:18:42;4.40;;;0.80;;
8098;SDS011;4092;47.876;9.372;2022-11-14T14:21:15;1.50;;;1.00;;
8098;SDS011;4092;47.876;9.372;2022-11-14T14:23:55;0.97;;;0.83;;
8098;SDS011;4092;47.876;9.372;2022-11-14T14:26:31;1.93;;;1.10;;
8098;SDS011;4092;47.876;9.372;2022-11-14T14:29:05;1.20;;;0.73;;
8098;SDS011;4092;47.876;9.372;2022-11-14T14:31:49;1.10;;;0.87;;
8098;SDS011;4092;47.876;9.372;2022-11-14T14:34:20;1.50;;;1.00;;
8098;SDS011;4092;47.876;9.372;2022-11-14T14:36:49;0.93;;;0.80;;
8098;SDS011;4092;47.876;9.372;2022-11-14T14:39:18;1.37;;;0.80;;
8098;SDS011;4092;47.876;9.372;2022-11-14T14:41:47;2.50;;;0.93;;
8098;SDS011;4092;47.876;9.372;2022-11-14T14:44:20;1.47;;;0.80;;
8098;SDS011;4092;47.876;9.372;2022-11-14T14:46:51;1.33;;;1.20;;
8098;SDS011;4092;47.876;9.372;2022-11-14T14:49:20;1.87;;;1.13;;
8098;SDS011;4092;47.876;9.372;2022-11-14T14:51:50;2.13;;;1.00;;
8098;SDS011;4092;47.876;9.372;2022-11-14T14:54:18;2.63;;;1.00;;
8098;SDS011;4092;47.876;9.372;2022-11-14T14:56:53;2.50;;;1.00;;
8098;SDS011;4092;47.876;9.372;2022-11-14T14:59:24;1.10;;;0.80;;
8098;SDS011;4092;47.876;9.372;2022-11-14T15:01:53;1.20;;;0.87;;
8098;SDS011;4092;47.876;9.372;2022-11-14T15:04:22;2.47;;;1.03;;
8098;SDS011;4092;47.876;9.372;2022-11-14T15:06:52;1.60;;;0.93;;
8098;SDS011;4092;47.876;9.372;2022-11-14T15:09:21;0.90;;;0.70;;
8098;SDS011;4092;47.876;9.372;2022-11-14T15:11:50;1.10;;;0.80;;
8098;SDS011;4092;47.876;9.372;2022-11-14T15:14:22;1.40;;;1.00;;
8098;SDS011;4092;47.876;9.372;2022-11-14T15:16:50;1.17;;;0.80;;
8098;SDS011;4092;47.876;9.372;2022-11-14T15:19:21;0.90;;;0.70;;
8098;SDS011;4092;47.876;9.372;2022-11-14T15:22:00;1.33;;;0.70;;
8098;SDS011;4092;47.876;9.372;2022-11-14T15:24:29;1.30;;;0.80;;
8098;SDS011;4092;47.876;9.372;2022-11-14T15:26:56;1.47;;;0.80;;
8098;SDS011;4092;47.876;9.372;2022-11-14T15:29:24;1.73;;;1.43;;
8098;SDS011;4092;47.876;9.372;2022-11-14T15:31:52;1.13;;;0.83;;
8098;SDS011;4092;47.876;9.372;2022-11-14T15:34:25;2.50;;;1.13;;
8098;SDS011;4092;47.876;9.372;2022-11-14T15:39:48;1.20;;;1.10;;
8098;SDS011;4092;47.876;9.372;2022-11-14T15:42:19;1.70;;;1.10;;
8098;SDS011;4092;47.876;9.372;2022-11-14T15:44:52;1.33;;;0.80;;
8098;SDS011;4092;47.876;9.372;2022-11-14T15:47:24;2.07;;;0.83;;
8098;SDS011;4092;47.876;9.372;2022-11-14T15:49:56;6.60;;;1.10;;
8098;SDS011;4092;47.876;9.372;2022-11-14T15:52:27;1.03;;;0.80;;
8098;SDS011;4092;47.876;9.372;2022-11-14T15:54:58;2.20;;;1.17;;